sensor_id;sensor_type;location;lat;lon;timestamp;pressure;altitude;pressure_sealevel;temperature;humidity
42771;BME280;28426;42.872;25.314;2024-01-10T00:01:34;98414.06;;;-9.11;85.75
42771;BME280;28426;42.872;25.314;2024-01-10T00:04:08;98408.97;;;-9.17;87.42
42771;BME280;28426;42.872;25.314;2024-01-10T00:06:39;98401.00;;;-9.04;90.00
42771;BME280;28426;42.872;25.314;2024-01-10T00:09:10;98409.47;;;-8.96;87.15
42771;BME280;28426;42.872;25.314;2024-01-10T00:11:41;98404.34;;;-8.99;85.98
42771;BME280;28426;42.872;25.314;2024-01-10T00:14:11;98406.94;;;-9.01;85.33
42771;BME280;28426;42.872;25.314;2024-01-10T00:19:38;98405.16;;;-9.43;81.49
42771;BME280;28426;42.872;25.314;2024-01-10T00:22:09;98418.41;;;-9.63;81.90
42771;BME280;28426;42.872;25.314;2024-01-10T00:24:40;98393.28;;;-10.05;81.42
42771;BME280;28426;42.872;25.314;2024-01-10T00:27:10;98412.44;;;-10.19;80.61
42771;BME280;28426;42.872;25.314;2024-01-10T00:29:42;98406.88;;;-10.49;81.13
42771;BME280;28426;42.872;25.314;2024-01-10T00:32:12;98430.09;;;-10.49;82.68
42771;BME280;28426;42.872;25.314;2024-01-10T00:34:46;98430.22;;;-10.58;83.58
42771;BME280;28426;42.872;25.314;2024-01-10T00:37:17;98437.97;;;-10.61;84.17
42771;BME280;28426;42.872;25.314;2024-01-10T00:39:48;98434.59;;;-10.64;85.11
42771;BME280;28426;42.872;25.314;2024-01-10T00:42:19;98441.44;;;-10.61;85.72
42771;BME280;28426;42.872;25.314;2024-01-10T00:44:50;98440.44;;;-10.51;87.51
42771;BME280;28426;42.872;25.314;2024-01-10T00:47:21;98429.94;;;-10.40;88.20
42771;BME280;28426;42.872;25.314;2024-01-10T00:49:55;98425.47;;;-10.28;88.12
42771;BME280;28426;42.872;25.314;2024-01-10T00:52:26;98416.06;;;-10.32;86.54
42771;BME280;28426;42.872;25.314;2024-01-10T00:55:00;98409.28;;;-10.40;85.17
42771;BME280;28426;42.872;25.314;2024-01-10T00:57:30;98436.75;;;-10.34;84.11
42771;BME280;28426;42.872;25.314;2024-01-10T01:00:01;98418.06;;;-10.48;83.91
42771;BME280;28426;42.872;25.314;2024-01-10T01:02:32;98419.91;;;-10.58;83.86
42771;BME280;28426;42.872;25.314;2024-01-10T01:05:06;98420.91;;;-10.69;84.24
42771;BME280;28426;42.872;25.314;2024-01-10T01:07:37;98418.13;;;-10.55;89.80
42771;BME280;28426;42.872;25.314;2024-01-10T01:10:08;98412.69;;;-10.38;90.03
42771;BME280;28426;42.872;25.314;2024-01-10T01:12:39;98415.94;;;-10.23;90.28
42771;BME280;28426;42.872;25.314;2024-01-10T01:15:10;98423.41;;;-10.04;90.21
42771;BME280;28426;42.872;25.314;2024-01-10T01:17:41;98412.03;;;-9.94;90.26
42771;BME280;28426;42.872;25.314;2024-01-10T01:20:15;98396.50;;;-9.91;90.05
42771;BME280;28426;42.872;25.314;2024-01-10T01:22:46;98405.63;;;-9.71;89.55
42771;BME280;28426;42.872;25.314;2024-01-10T01:25:17;98413.19;;;-9.60;89.40
42771;BME280;28426;42.872;25.314;2024-01-10T01:27:48;98396.75;;;-9.54;89.02
42771;BME280;28426;42.872;25.314;2024-01-10T01:30:19;98410.31;;;-9.43;88.79
42771;BME280;28426;42.872;25.314;2024-01-10T01:32:50;98417.03;;;-9.33;88.69
42771;BME280;28426;42.872;25.314;2024-01-10T01:35:24;98408.28;;;-9.25;87.97
42771;BME280;28426;42.872;25.314;2024-01-10T01:37:55;98409.88;;;-9.18;87.97
42771;BME280;28426;42.872;25.314;2024-01-10T01:40:26;98410.59;;;-9.11;87.28
42771;BME280;28426;42.872;25.314;2024-01-10T01:42:57;98403.75;;;-9.14;86.47
42771;BME280;28426;42.872;25.314;2024-01-10T01:45:28;98406.22;;;-9.08;85.97
42771;BME280;28426;42.872;25.314;2024-01-10T01:47:59;98401.91;;;-9.07;84.81
42771;BME280;28426;42.872;25.314;2024-01-10T01:50:33;98406.22;;;-9.08;84.53
42771;BME280;28426;42.872;25.314;2024-01-10T01:53:04;98397.59;;;-9.07;84.21
42771;BME280;28426;42.872;25.314;2024-01-10T01:55:36;98401.91;;;-9.07;83.94
42771;BME280;28426;42.872;25.314;2024-01-10T01:58:07;98396.72;;;-9.07;83.66
42771;BME280;28426;42.872;25.314;2024-01-10T02:00:39;98395.88;;;-9.08;83.36
42771;BME280;28426;42.872;25.314;2024-01-10T02:03:11;98401.94;;;-9.09;83.03
42771;BME280;28426;42.872;25.314;2024-01-10T02:05:46;98381.41;;;-9.16;81.69
42771;BME280;28426;42.872;25.314;2024-01-10T02:08:17;98378.06;;;-9.22;81.35
42771;BME280;28426;42.872;25.314;2024-01-10T02:10:48;98385.78;;;-9.20;81.37
42771;BME280;28426;42.872;25.314;2024-01-10T02:13:19;98364.44;;;-9.30;81.43
42771;BME280;28426;42.872;25.314;2024-01-10T02:15:50;98367.84;;;-9.29;80.85
42771;BME280;28426;42.872;25.314;2024-01-10T02:18:21;98357.63;;;-9.36;80.94
42771;BME280;28426;42.872;25.314;2024-01-10T02:20:55;98362.78;;;-9.34;80.82
42771;BME280;28426;42.872;25.314;2024-01-10T02:23:26;98367.09;;;-9.35;80.97
42771;BME280;28426;42.872;25.314;2024-01-10T02:26:00;98353.38;;;-9.38;81.43
42771;BME280;28426;42.872;25.314;2024-01-10T02:28:31;98364.56;;;-9.38;80.50
42771;BME280;28426;42.872;25.314;2024-01-10T02:31:03;98357.72;;;-9.40;80.72
42771;BME280;28426;42.872;25.314;2024-01-10T02:33:35;98357.75;;;-9.42;80.28
42771;BME280;28426;42.872;25.314;2024-01-10T02:36:06;98358.75;;;-9.49;79.87
42771;BME280;28426;42.872;25.314;2024-01-10T02:38:37;98360.44;;;-9.48;79.88
42771;BME280;28426;42.872;25.314;2024-01-10T02:41:10;98353.59;;;-9.51;79.89
42771;BME280;28426;42.872;25.314;2024-01-10T02:43:41;98348.44;;;-9.52;79.27
42771;BME280;28426;42.872;25.314;2024-01-10T02:46:12;98346.88;;;-9.58;79.15
42771;BME280;28426;42.872;25.314;2024-01-10T02:48:43;98346.88;;;-9.60;79.06
42771;BME280;28426;42.872;25.314;2024-01-10T02:51:15;98341.75;;;-9.63;78.99
42771;BME280;28426;42.872;25.314;2024-01-10T02:53:46;98345.22;;;-9.64;78.72
42771;BME280;28426;42.872;25.314;2024-01-10T02:56:19;98324.91;;;-9.82;78.51
42771;BME280;28426;42.872;25.314;2024-01-10T02:58:50;98340.16;;;-9.70;78.65
42771;BME280;28426;42.872;25.314;2024-01-10T03:01:21;98338.59;;;-9.77;78.59
42771;BME280;28426;42.872;25.314;2024-01-10T03:03:52;98342.06;;;-9.78;77.96
42771;BME280;28426;42.872;25.314;2024-01-10T03:06:23;98346.34;;;-9.77;78.15
42771;BME280;28426;42.872;25.314;2024-01-10T03:08:55;98348.97;;;-9.80;78.22
42771;BME280;28426;42.872;25.314;2024-01-10T03:11:29;98354.13;;;-9.80;77.82
42771;BME280;28426;42.872;25.314;2024-01-10T03:14:03;98353.38;;;-9.87;78.08
42771;BME280;28426;42.872;25.314;2024-01-10T03:16:34;98338.00;;;-9.93;77.69
42771;BME280;28426;42.872;25.314;2024-01-10T03:19:06;98348.25;;;-9.89;77.57
42771;BME280;28426;42.872;25.314;2024-01-10T03:21:37;98353.44;;;-9.90;77.75
42771;BME280;28426;42.872;25.314;2024-01-10T03:24:08;98350.03;;;-9.92;78.07
42771;BME280;28426;42.872;25.314;2024-01-10T03:26:42;98325.44;;;-10.14;77.90
42771;BME280;28426;42.872;25.314;2024-01-10T03:29:14;98342.34;;;-9.97;78.14
42771;BME280;28426;42.872;25.314;2024-01-10T03:31:45;98347.50;;;-9.97;77.54
42771;BME280;28426;42.872;25.314;2024-01-10T03:34:16;98342.41;;;-10.00;77.03
42771;BME280;28426;42.872;25.314;2024-01-10T03:36:47;98340.78;;;-10.04;77.10
42771;BME280;28426;42.872;25.314;2024-01-10T03:39:18;98311.84;;;-10.25;76.97
42771;BME280;28426;42.872;25.314;2024-01-10T03:41:51;98343.44;;;-10.11;77.23
42771;BME280;28426;42.872;25.314;2024-01-10T03:44:23;98322.19;;;-10.27;77.21
42771;BME280;28426;42.872;25.314;2024-01-10T03:46:55;98304.28;;;-10.36;77.29
42771;BME280;28426;42.872;25.314;2024-01-10T03:49:26;98321.38;;;-10.29;77.18
42771;BME280;28426;42.872;25.314;2024-01-10T03:51:57;98327.28;;;-10.22;77.10
42771;BME280;28426;42.872;25.314;2024-01-10T03:54:28;98331.56;;;-10.21;77.29
42771;BME280;28426;42.872;25.314;2024-01-10T03:57:01;98334.16;;;-10.21;77.13
42771;BME280;28426;42.872;25.314;2024-01-10T03:59:32;98334.19;;;-10.24;76.93
42771;BME280;28426;42.872;25.314;2024-01-10T04:02:04;98338.50;;;-10.23;76.98
42771;BME280;28426;42.872;25.314;2024-01-10T04:04:37;98331.66;;;-10.26;76.96
42771;BME280;28426;42.872;25.314;2024-01-10T04:07:08;98337.66;;;-10.25;77.04
42771;BME280;28426;42.872;25.314;2024-01-10T04:09:39;98337.66;;;-10.25;76.98
42771;BME280;28426;42.872;25.314;2024-01-10T04:12:13;98342.81;;;-10.25;76.89
42771;BME280;28426;42.872;25.314;2024-01-10T04:14:43;98332.59;;;-10.31;76.53
42771;BME280;28426;42.872;25.314;2024-01-10T04:17:15;98332.59;;;-10.31;76.74
42771;BME280;28426;42.872;25.314;2024-01-10T04:19:45;98336.91;;;-10.32;76.50
42771;BME280;28426;42.872;25.314;2024-01-10T04:22:16;98337.78;;;-10.33;76.67
42771;BME280;28426;42.872;25.314;2024-01-10T04:24:47;98339.47;;;-10.30;76.79
42771;BME280;28426;42.872;25.314;2024-01-10T04:27:21;98331.81;;;-10.35;76.37
42771;BME280;28426;42.872;25.314;2024-01-10T04:29:52;98334.38;;;-10.35;76.57
42771;BME280;28426;42.872;25.314;2024-01-10T04:32:23;98345.53;;;-10.33;76.97
42771;BME280;28426;42.872;25.314;2024-01-10T04:34:54;98349.78;;;-10.30;76.68
42771;BME280;28426;42.872;25.314;2024-01-10T04:37:25;98354.06;;;-10.29;76.90
42771;BME280;28426;42.872;25.314;2024-01-10T04:39:57;98354.06;;;-10.29;76.66
42771;BME280;28426;42.872;25.314;2024-01-10T04:42:48;98353.25;;;-10.31;76.87
42771;BME280;28426;42.872;25.314;2024-01-10T04:45:19;98351.41;;;-10.25;77.06
42771;BME280;28426;42.872;25.314;2024-01-10T04:47:49;98349.78;;;-10.30;77.25
42771;BME280;28426;42.872;25.314;2024-01-10T04:50:20;98356.59;;;-10.26;77.04
42771;BME280;28426;42.872;25.314;2024-01-10T04:52:51;98359.16;;;-10.23;77.63
42771;BME280;28426;42.872;25.314;2024-01-10T04:55:23;98357.38;;;-10.21;77.75
42771;BME280;28426;42.872;25.314;2024-01-10T04:57:56;98348.88;;;-10.26;78.19
42771;BME280;28426;42.872;25.314;2024-01-10T05:00:27;98347.97;;;-10.25;78.23
42771;BME280;28426;42.872;25.314;2024-01-10T05:02:58;98358.22;;;-10.19;78.58
42771;BME280;28426;42.872;25.314;2024-01-10T05:05:29;98375.25;;;-10.08;78.79
42771;BME280;28426;42.872;25.314;2024-01-10T05:08:00;98374.38;;;-10.07;78.47
42771;BME280;28426;42.872;25.314;2024-01-10T05:10:31;98375.25;;;-10.07;78.39
42771;BME280;28426;42.872;25.314;2024-01-10T05:13:05;98359.03;;;-10.17;78.04
42771;BME280;28426;42.872;25.314;2024-01-10T05:15:36;98380.44;;;-10.08;77.54
42771;BME280;28426;42.872;25.314;2024-01-10T05:18:07;98371.78;;;-10.07;77.79
42771;BME280;28426;42.872;25.314;2024-01-10T05:20:38;98381.28;;;-10.08;77.88
42771;BME280;28426;42.872;25.314;2024-01-10T05:23:10;98367.53;;;-10.10;77.85
42771;BME280;28426;42.872;25.314;2024-01-10T05:25:42;98374.41;;;-10.11;77.91
42771;BME280;28426;42.872;25.314;2024-01-10T05:28:16;98382.09;;;-10.04;77.67
42771;BME280;28426;42.872;25.314;2024-01-10T05:30:47;98381.28;;;-10.08;77.02
42771;BME280;28426;42.872;25.314;2024-01-10T05:33:18;98388.16;;;-10.07;77.21
42771;BME280;28426;42.872;25.314;2024-01-10T05:35:52;98384.72;;;-10.09;76.75
42771;BME280;28426;42.872;25.314;2024-01-10T05:38:23;98395.94;;;-10.10;76.87
42771;BME280;28426;42.872;25.314;2024-01-10T05:40:55;98390.81;;;-10.13;76.88
42771;BME280;28426;42.872;25.314;2024-01-10T05:43:29;98385.69;;;-10.15;76.97
42771;BME280;28426;42.872;25.314;2024-01-10T05:46:00;98395.16;;;-10.15;77.17
42771;BME280;28426;42.872;25.314;2024-01-10T05:48:32;98393.44;;;-10.15;77.34
42771;BME280;28426;42.872;25.314;2024-01-10T05:51:04;98390.91;;;-10.18;77.68
42771;BME280;28426;42.872;25.314;2024-01-10T05:53:35;98395.97;;;-10.12;77.72
42771;BME280;28426;42.872;25.314;2024-01-10T05:56:06;98399.44;;;-10.14;77.21
42771;BME280;28426;42.872;25.314;2024-01-10T05:58:40;98368.69;;;-10.28;77.36
42771;BME280;28426;42.872;25.314;2024-01-10T06:01:12;98392.59;;;-10.17;77.47
42771;BME280;28426;42.872;25.314;2024-01-10T06:03:42;98385.72;;;-10.16;77.92
42771;BME280;28426;42.872;25.314;2024-01-10T06:06:13;98402.94;;;-10.17;77.60
42771;BME280;28426;42.872;25.314;2024-01-10T06:08:44;98391.72;;;-10.17;77.64
42771;BME280;28426;42.872;25.314;2024-01-10T06:11:15;98401.22;;;-10.18;77.53
42771;BME280;28426;42.872;25.314;2024-01-10T06:13:49;98389.25;;;-10.22;77.62
42771;BME280;28426;42.872;25.314;2024-01-10T06:16:24;98401.25;;;-10.21;77.70
42771;BME280;28426;42.872;25.314;2024-01-10T06:18:55;98408.09;;;-10.17;77.78
42771;BME280;28426;42.872;25.314;2024-01-10T06:21:25;98416.69;;;-10.15;77.55
42771;BME280;28426;42.872;25.314;2024-01-10T06:23:56;98408.06;;;-10.14;77.65
42771;BME280;28426;42.872;25.314;2024-01-10T06:26:27;98413.19;;;-10.12;77.80
42771;BME280;28426;42.872;25.314;2024-01-10T06:29:01;98411.56;;;-10.18;77.75
42771;BME280;28426;42.872;25.314;2024-01-10T06:31:32;98421.78;;;-10.12;77.34
42771;BME280;28426;42.872;25.314;2024-01-10T06:34:03;98379.06;;;-10.31;77.19
42771;BME280;28426;42.872;25.314;2024-01-10T06:36:34;98402.94;;;-10.17;77.73
42771;BME280;28426;42.872;25.314;2024-01-10T06:39:06;98411.44;;;-10.10;77.46
42771;BME280;28426;42.872;25.314;2024-01-10T06:41:40;98413.91;;;-10.04;77.53
42771;BME280;28426;42.872;25.314;2024-01-10T06:44:15;98402.88;;;-10.12;77.67
42771;BME280;28426;42.872;25.314;2024-01-10T06:46:47;98421.59;;;-9.99;77.61
42771;BME280;28426;42.872;25.314;2024-01-10T06:49:18;98421.56;;;-9.96;77.14
42771;BME280;28426;42.872;25.314;2024-01-10T06:51:49;98420.78;;;-10.01;77.31
42771;BME280;28426;42.872;25.314;2024-01-10T06:54:19;98432.66;;;-9.91;77.35
42771;BME280;28426;42.872;25.314;2024-01-10T06:56:50;98434.34;;;-9.88;77.39
42771;BME280;28426;42.872;25.314;2024-01-10T06:59:24;98418.13;;;-9.98;77.11
42771;BME280;28426;42.872;25.314;2024-01-10T07:01:55;98394.16;;;-10.06;77.47
42771;BME280;28426;42.872;25.314;2024-01-10T07:04:29;98432.50;;;-9.81;77.62
42771;BME280;28426;42.872;25.314;2024-01-10T07:07:00;98430.69;;;-9.76;77.57
42771;BME280;28426;42.872;25.314;2024-01-10T07:09:32;98426.31;;;-9.73;77.68
42771;BME280;28426;42.872;25.314;2024-01-10T07:12:04;98428.72;;;-9.60;78.13
42771;BME280;28426;42.872;25.314;2024-01-10T07:14:37;98426.78;;;-9.47;78.25
42771;BME280;28426;42.872;25.314;2024-01-10T07:17:08;98424.03;;;-9.38;78.26
42771;BME280;28426;42.872;25.314;2024-01-10T07:19:39;98424.63;;;-9.23;78.09
42771;BME280;28426;42.872;25.314;2024-01-10T07:22:10;98423.50;;;-9.10;77.92
42771;BME280;28426;42.872;25.314;2024-01-10T07:24:41;98424.13;;;-8.98;78.25
42771;BME280;28426;42.872;25.314;2024-01-10T07:27:14;98409.28;;;-8.87;77.87
42771;BME280;28426;42.872;25.314;2024-01-10T07:29:49;98414.94;;;-8.68;77.93
42771;BME280;28426;42.872;25.314;2024-01-10T07:32:20;98412.91;;;-8.55;77.77
42771;BME280;28426;42.872;25.314;2024-01-10T07:34:51;98415.09;;;-8.37;77.39
42771;BME280;28426;42.872;25.314;2024-01-10T07:37:22;98407.22;;;-8.33;76.51
42771;BME280;28426;42.872;25.314;2024-01-10T07:39:53;98424.00;;;-8.10;75.73
42771;BME280;28426;42.872;25.314;2024-01-10T07:42:24;98419.31;;;-7.95;75.66
42771;BME280;28426;42.872;25.314;2024-01-10T07:44:58;98427.63;;;-7.81;75.85
42771;BME280;28426;42.872;25.314;2024-01-10T07:47:34;98419.56;;;-7.70;74.42
42771;BME280;28426;42.872;25.314;2024-01-10T07:50:07;98408.03;;;-7.58;74.69
42771;BME280;28426;42.872;25.314;2024-01-10T07:52:41;98429.03;;;-7.32;73.84
42771;BME280;28426;42.872;25.314;2024-01-10T07:55:13;98408.06;;;-7.25;74.78
42771;BME280;28426;42.872;25.314;2024-01-10T07:57:45;98423.72;;;-6.94;74.81
42771;BME280;28426;42.872;25.314;2024-01-10T08:00:19;98413.81;;;-6.81;74.54
42771;BME280;28426;42.872;25.314;2024-01-10T08:02:50;98420.97;;;-6.58;73.03
42771;BME280;28426;42.872;25.314;2024-01-10T08:05:21;98412.19;;;-6.54;72.87
42771;BME280;28426;42.872;25.314;2024-01-10T08:07:53;98420.22;;;-6.33;73.21
42771;BME280;28426;42.872;25.314;2024-01-10T08:10:24;98421.63;;;-6.23;70.91
42771;BME280;28426;42.872;25.314;2024-01-10T08:12:57;98412.06;;;-6.21;70.47
42771;BME280;28426;42.872;25.314;2024-01-10T08:15:30;98419.47;;;-6.08;71.55
42771;BME280;28426;42.872;25.314;2024-01-10T08:18:02;98424.06;;;-5.89;71.87
42771;BME280;28426;42.872;25.314;2024-01-10T08:20:35;98414.41;;;-5.86;70.81
42771;BME280;28426;42.872;25.314;2024-01-10T08:23:06;98424.25;;;-5.69;70.70
42771;BME280;28426;42.872;25.314;2024-01-10T08:25:37;98427.50;;;-5.62;70.28
42771;BME280;28426;42.872;25.314;2024-01-10T08:28:08;98419.66;;;-5.60;69.55
42771;BME280;28426;42.872;25.314;2024-01-10T08:30:46;98423.88;;;-5.58;69.56
42771;BME280;28426;42.872;25.314;2024-01-10T08:33:17;98411.06;;;-5.62;69.37
42771;BME280;28426;42.872;25.314;2024-01-10T08:35:48;98421.78;;;-5.46;69.79
42771;BME280;28426;42.872;25.314;2024-01-10T08:38:19;98419.66;;;-5.35;70.14
42771;BME280;28426;42.872;25.314;2024-01-10T08:40:50;98425.09;;;-5.16;70.55
42771;BME280;28426;42.872;25.314;2024-01-10T08:43:21;98413.28;;;-5.01;70.64
42771;BME280;28426;42.872;25.314;2024-01-10T08:45:55;98415.97;;;-4.78;70.17
42771;BME280;28426;42.872;25.314;2024-01-10T08:48:26;98416.19;;;-4.61;70.17
42771;BME280;28426;42.872;25.314;2024-01-10T08:51:00;98409.56;;;-4.46;69.13
42771;BME280;28426;42.872;25.314;2024-01-10T08:53:30;98411.16;;;-4.41;67.89
42771;BME280;28426;42.872;25.314;2024-01-10T08:56:01;98411.25;;;-4.44;66.73
42771;BME280;28426;42.872;25.314;2024-01-10T08:58:33;98406.91;;;-4.44;67.01
42771;BME280;28426;42.872;25.314;2024-01-10T09:01:07;98405.22;;;-4.45;67.56
42771;BME280;28426;42.872;25.314;2024-01-10T09:03:38;98399.03;;;-4.42;67.93
42771;BME280;28426;42.872;25.314;2024-01-10T09:06:09;98396.31;;;-4.39;67.69
42771;BME280;28426;42.872;25.314;2024-01-10T09:08:40;98394.44;;;-4.36;67.48
42771;BME280;28426;42.872;25.314;2024-01-10T09:11:11;98394.19;;;-4.29;68.32
42771;BME280;28426;42.872;25.314;2024-01-10T09:13:42;98387.03;;;-4.24;68.22
42771;BME280;28426;42.872;25.314;2024-01-10T09:16:16;98390.94;;;-4.12;68.76
42771;BME280;28426;42.872;25.314;2024-01-10T09:18:47;98381.03;;;-4.04;68.93
42771;BME280;28426;42.872;25.314;2024-01-10T09:21:22;98377.94;;;-3.91;66.93
42771;BME280;28426;42.872;25.314;2024-01-10T09:23:55;98370.97;;;-3.91;67.37
42771;BME280;28426;42.872;25.314;2024-01-10T09:26:40;98375.00;;;-3.84;67.56
42771;BME280;28426;42.872;25.314;2024-01-10T09:29:13;98373.09;;;-3.78;67.51
42771;BME280;28426;42.872;25.314;2024-01-10T09:31:47;98379.72;;;-3.71;68.26
42771;BME280;28426;42.872;25.314;2024-01-10T09:34:18;98375.25;;;-3.68;67.71
42771;BME280;28426;42.872;25.314;2024-01-10T09:36:50;98377.66;;;-3.63;67.32
42771;BME280;28426;42.872;25.314;2024-01-10T09:39:23;98368.78;;;-3.59;67.48
42771;BME280;28426;42.872;25.314;2024-01-10T09:41:54;98368.66;;;-3.56;67.68
42771;BME280;28426;42.872;25.314;2024-01-10T09:44:25;98366.81;;;-3.53;66.98
42771;BME280;28426;42.872;25.314;2024-01-10T09:47:00;98356.50;;;-3.57;67.04
42771;BME280;28426;42.872;25.314;2024-01-10T09:49:32;98364.34;;;-3.57;66.04
42771;BME280;28426;42.872;25.314;2024-01-10T09:52:05;98369.56;;;-3.57;66.11
42771;BME280;28426;42.872;25.314;2024-01-10T09:54:40;98370.47;;;-3.58;66.78
42771;BME280;28426;42.872;25.314;2024-01-10T09:57:14;98367.94;;;-3.59;65.59
42771;BME280;28426;42.872;25.314;2024-01-10T09:59:45;98374.13;;;-3.62;65.89
42771;BME280;28426;42.872;25.314;2024-01-10T10:02:22;98366.28;;;-3.62;66.16
42771;BME280;28426;42.872;25.314;2024-01-10T10:04:58;98364.56;;;-3.61;66.88
42771;BME280;28426;42.872;25.314;2024-01-10T10:07:43;98366.94;;;-3.57;67.42
42771;BME280;28426;42.872;25.314;2024-01-10T10:10:14;98363.25;;;-3.51;68.06
42771;BME280;28426;42.872;25.314;2024-01-10T10:12:47;98346.34;;;-3.63;67.37
42771;BME280;28426;42.872;25.314;2024-01-10T10:15:20;98360.22;;;-3.42;66.90
42771;BME280;28426;42.872;25.314;2024-01-10T10:17:56;98358.41;;;-3.39;66.16
42771;BME280;28426;42.872;25.314;2024-01-10T10:20:29;98352.22;;;-3.37;66.02
42771;BME280;28426;42.872;25.314;2024-01-10T10:23:01;98356.53;;;-3.36;65.52
42771;BME280;28426;42.872;25.314;2024-01-10T10:25:34;98353.78;;;-3.33;65.80
42771;BME280;28426;42.872;25.314;2024-01-10T10:28:05;98345.16;;;-3.35;64.88
42771;BME280;28426;42.872;25.314;2024-01-10T10:30:51;98346.59;;;-3.28;65.33
42771;BME280;28426;42.872;25.314;2024-01-10T10:33:26;98348.09;;;-3.22;65.66
42771;BME280;28426;42.872;25.314;2024-01-10T10:35:57;98344.34;;;-3.16;64.51
42771;BME280;28426;42.872;25.314;2024-01-10T10:38:27;98334.69;;;-3.14;64.14
42771;BME280;28426;42.872;25.314;2024-01-10T10:40:59;98329.97;;;-3.06;64.64
42771;BME280;28426;42.872;25.314;2024-01-10T10:43:34;98330.28;;;-2.93;64.68
42771;BME280;28426;42.872;25.314;2024-01-10T10:46:07;98332.41;;;-2.82;62.11
42771;BME280;28426;42.872;25.314;2024-01-10T10:48:43;98332.91;;;-2.73;62.44
42771;BME280;28426;42.872;25.314;2024-01-10T10:51:19;98333.41;;;-2.65;62.21
42771;BME280;28426;42.872;25.314;2024-01-10T10:53:55;98328.50;;;-2.54;61.78
42771;BME280;28426;42.872;25.314;2024-01-10T10:56:30;98322.91;;;-2.46;60.12
42771;BME280;28426;42.872;25.314;2024-01-10T10:59:02;98318.22;;;-2.39;60.07
42771;BME280;28426;42.872;25.314;2024-01-10T11:01:35;98311.81;;;-2.32;58.74
42771;BME280;28426;42.872;25.314;2024-01-10T11:04:10;98314.09;;;-2.26;59.57
42771;BME280;28426;42.872;25.314;2024-01-10T11:06:42;98311.97;;;-2.17;58.83
42771;BME280;28426;42.872;25.314;2024-01-10T11:09:15;98305.66;;;-2.13;59.41
42771;BME280;28426;42.872;25.314;2024-01-10T11:12:02;98304.59;;;-2.09;57.85
42771;BME280;28426;42.872;25.314;2024-01-10T11:14:47;98309.69;;;-2.06;59.03
42771;BME280;28426;42.872;25.314;2024-01-10T11:17:40;98304.31;;;-2.03;58.25
42771;BME280;28426;42.872;25.314;2024-01-10T11:20:39;98304.94;;;-1.98;58.27
42771;BME280;28426;42.872;25.314;2024-01-10T11:23:38;98296.09;;;-1.95;56.00
42771;BME280;28426;42.872;25.314;2024-01-10T11:26:09;98294.28;;;-1.94;56.86
42771;BME280;28426;42.872;25.314;2024-01-10T11:28:41;98287.31;;;-1.94;57.46
42771;BME280;28426;42.872;25.314;2024-01-10T11:31:13;98294.09;;;-1.90;58.22
42771;BME280;28426;42.872;25.314;2024-01-10T11:33:45;98281.06;;;-1.91;57.52
42771;BME280;28426;42.872;25.314;2024-01-10T11:36:22;98276.38;;;-1.85;57.08
42771;BME280;28426;42.872;25.314;2024-01-10T11:38:56;98260.81;;;-1.88;56.96
42771;BME280;28426;42.872;25.314;2024-01-10T11:41:31;98275.97;;;-1.77;57.40
42771;BME280;28426;42.872;25.314;2024-01-10T11:44:27;98267.97;;;-1.74;56.25
42771;BME280;28426;42.872;25.314;2024-01-10T11:46:56;98266.03;;;-1.70;56.49
42771;BME280;28426;42.872;25.314;2024-01-10T11:49:28;98267.50;;;-1.64;57.22
42771;BME280;28426;42.872;25.314;2024-01-10T11:52:02;98275.97;;;-1.59;57.29
42771;BME280;28426;42.872;25.314;2024-01-10T11:54:40;98263.47;;;-1.54;56.83
42771;BME280;28426;42.872;25.314;2024-01-10T11:57:13;98259.78;;;-1.50;53.85
42771;BME280;28426;42.872;25.314;2024-01-10T11:59:44;98261.31;;;-1.46;56.50
42771;BME280;28426;42.872;25.314;2024-01-10T12:02:15;98257.59;;;-1.41;56.40
42771;BME280;28426;42.872;25.314;2024-01-10T12:04:47;98246.13;;;-1.39;56.87
42771;BME280;28426;42.872;25.314;2024-01-10T12:07:22;98248.50;;;-1.34;55.76
42771;BME280;28426;42.872;25.314;2024-01-10T12:09:55;98242.19;;;-1.30;55.52
42771;BME280;28426;42.872;25.314;2024-01-10T12:12:26;98231.13;;;-1.35;55.63
42771;BME280;28426;42.872;25.314;2024-01-10T12:14:57;98223.66;;;-1.27;56.27
42771;BME280;28426;42.872;25.314;2024-01-10T12:17:30;98238.88;;;-1.17;56.27
42771;BME280;28426;42.872;25.314;2024-01-10T12:20:01;98234.59;;;-1.19;54.92
42771;BME280;28426;42.872;25.314;2024-01-10T12:22:35;98215.22;;;-1.32;55.94
42771;BME280;28426;42.872;25.314;2024-01-10T12:25:08;98225.78;;;-1.17;56.44
42771;BME280;28426;42.872;25.314;2024-01-10T12:27:39;98227.44;;;-1.15;55.47
42771;BME280;28426;42.872;25.314;2024-01-10T12:30:12;98232.66;;;-1.15;55.04
42771;BME280;28426;42.872;25.314;2024-01-10T12:32:43;98236.38;;;-1.19;54.06
42771;BME280;28426;42.872;25.314;2024-01-10T12:35:17;98232.31;;;-1.25;53.89
42771;BME280;28426;42.872;25.314;2024-01-10T12:37:56;98233.56;;;-1.32;53.97
42771;BME280;28426;42.872;25.314;2024-01-10T12:40:28;98229.47;;;-1.38;53.67
42771;BME280;28426;42.872;25.314;2024-01-10T12:43:05;98230.69;;;-1.43;54.15
42771;BME280;28426;42.872;25.314;2024-01-10T12:45:37;98223.13;;;-1.50;53.38
42771;BME280;28426;42.872;25.314;2024-01-10T12:48:13;98218.16;;;-1.54;54.18
42771;BME280;28426;42.872;25.314;2024-01-10T12:50:44;98219.16;;;-1.57;55.14
42771;BME280;28426;42.872;25.314;2024-01-10T12:53:18;98217.22;;;-1.53;56.01
42771;BME280;28426;42.872;25.314;2024-01-10T12:55:49;98202.00;;;-1.63;56.60
42771;BME280;28426;42.872;25.314;2024-01-10T12:58:20;98210.28;;;-1.54;56.35
42771;BME280;28426;42.872;25.314;2024-01-10T13:00:51;98228.13;;;-1.45;55.98
42771;BME280;28426;42.872;25.314;2024-01-10T13:03:22;98220.28;;;-1.45;56.15
42771;BME280;28426;42.872;25.314;2024-01-10T13:05:53;98226.19;;;-1.41;55.17
42771;BME280;28426;42.872;25.314;2024-01-10T13:08:30;98228.06;;;-1.43;54.86
42771;BME280;28426;42.872;25.314;2024-01-10T13:11:02;98230.06;;;-1.49;55.50
42771;BME280;28426;42.872;25.314;2024-01-10T13:13:36;98232.06;;;-1.54;54.77
42771;BME280;28426;42.872;25.314;2024-01-10T13:16:07;98234.09;;;-1.59;54.40
42771;BME280;28426;42.872;25.314;2024-01-10T13:18:40;98242.25;;;-1.65;54.62